Time;durP1;ratioP1;P1;durP2;ratioP2;P2;SDS_P1;SDS_P2;PMS_P1;PMS_P2;Temp;Humidity;BMP_temperature;BMP_pressure;BME280_temperature;BME280_humidity;BME280_pressure;Samples;Min_cycle;Max_cycle;Signal;HPM_P1;HPM_P2
2022/04/10 00:00:47;;;;;;;;;;;2.50;99.90;;;0.77;100.00;101405.13;2567900;30;138022;-41
2022/04/10 00:03:14;;;;;;;;;;;2.50;99.90;;;0.73;100.00;101414.44;2569207;30;139119;-41
2022/04/10 00:05:42;;;;;;;;;;;2.50;99.90;;;0.64;100.00;101416.09;2570502;30;137249;-42
2022/04/10 00:08:09;;;;;;;;;;;2.40;99.90;;;0.60;100.00;101409.28;2568954;30;138499;-41
2022/04/10 00:10:37;;;;;;;;;;;2.40;99.90;;;0.59;100.00;101412.94;2570913;30;137095;-41
2022/04/10 00:13:04;;;;;;;;;;;2.40;99.90;;;0.61;100.00;101410.97;2570092;30;138570;-41
2022/04/10 00:15:32;;;;;;;;;;;2.40;99.90;;;0.53;100.00;101408.94;2566901;30;137066;-41
2022/04/10 00:17:59;;;;;;;;;;;2.30;99.90;;;0.57;100.00;101424.69;2570036;30;137539;-41
2022/04/10 00:20:27;;;;;;;;;;;2.30;99.90;;;0.54;100.00;101408.00;2570011;30;137991;-41
2022/04/10 00:22:57;;;;;;;;;;;2.40;99.90;;;0.47;100.00;101412.16;2569657;30;139133;-43
2022/04/10 00:25:25;;;;;;;;;;;2.30;99.90;;;0.56;100.00;101419.47;2569370;30;137188;-41
2022/04/10 00:27:52;;;;;;;;;;;2.30;99.90;;;0.52;100.00;101408.13;2568721;30;138307;-41
2022/04/10 00:30:20;;;;;;;;;;;2.30;99.90;;;0.50;100.00;101414.59;2570717;30;138585;-41
2022/04/10 00:32:47;;;;;;;;;;;2.30;99.90;;;0.52;100.00;101418.00;2566720;30;138981;-41
2022/04/10 00:35:15;;;;;;;;;;;2.30;99.90;;;0.54;100.00;101416.06;2568305;30;138468;-42
2022/04/10 00:37:42;;;;;;;;;;;2.30;99.90;;;0.50;100.00;101414.59;2569008;30;139089;-41
2022/04/10 00:40:10;;;;;;;;;;;2.30;99.90;;;0.53;100.00;101415.19;2567259;30;138413;-41
2022/04/10 00:42:39;;;;;;;;;;;2.30;99.90;;;0.43;100.00;101409.75;2569499;30;140390;-41
2022/04/10 00:45:09;;;;;;;;;;;2.30;99.90;;;0.38;100.00;101412.00;2569223;30;138959;-41
2022/04/10 00:47:36;;;;;;;;;;;2.20;99.90;;;0.35;100.00;101414.94;2567449;30;137400;-41
2022/04/10 00:50:08;;;;;;;;;;;2.20;99.90;;;0.28;100.00;101411.09;2568924;30;138712;-43
2022/04/10 00:52:36;;;;;;;;;;;2.10;99.90;;;0.28;100.00;101416.44;2570001;30;141815;-43
2022/04/10 00:55:07;;;;;;;;;;;2.10;99.90;;;0.23;100.00;101422.19;2570008;30;137120;-42
2022/04/10 00:57:35;;;;;;;;;;;2.10;99.90;;;0.25;100.00;101416.69;2571682;30;138520;-41
2022/04/10 01:00:09;;;;;;;;;;;2.10;99.90;;;0.22;100.00;101422.31;2569152;30;137786;-41
2022/04/10 01:02:38;;;;;;;;;;;2.00;99.90;;;0.17;100.00;101420.03;2569964;30;140287;-41
2022/04/10 01:05:07;;;;;;;;;;;2.00;99.90;;;0.18;100.00;101421.75;2569537;30;138955;-42
2022/04/10 01:07:35;;;;;;;;;;;2.00;99.90;;;0.16;100.00;101428.22;2569658;30;140754;-42
2022/04/10 01:10:05;;;;;;;;;;;2.00;99.90;;;0.14;100.00;101423.81;2570840;30;138466;-40
2022/04/10 01:12:34;;;;;;;;;;;1.90;99.90;;;0.12;100.00;101423.09;2570113;30;139710;-44
2022/04/10 01:15:09;;;;;;;;;;;2.00;99.90;;;0.04;100.00;101422.03;2571256;30;138411;-41
2022/04/10 01:17:41;;;;;;;;;;;1.90;99.90;;;-0.04;100.00;101411.94;2568023;30;139600;-41
2022/04/10 01:20:09;;;;;;;;;;;1.90;99.90;;;-0.03;100.00;101424.38;2568603;30;138550;-41
2022/04/10 01:22:41;;;;;;;;;;;1.80;99.90;;;-0.05;100.00;101426.34;2569419;30;139114;-41
2022/04/10 01:25:11;;;;;;;;;;;1.80;99.90;;;-0.02;100.00;101421.56;2569023;30;137524;-42
2022/04/10 01:27:42;;;;;;;;;;;1.80;99.90;;;-0.03;100.00;101419.00;2571763;30;140877;-42
2022/04/10 01:30:11;;;;;;;;;;;1.80;99.90;;;-0.10;100.00;101420.50;2568750;30;139634;-44
2022/04/10 01:32:42;;;;;;;;;;;1.70;99.90;;;-0.08;100.00;101415.88;2568991;30;140206;-44
2022/04/10 01:35:10;;;;;;;;;;;1.70;99.90;;;-0.12;100.00;101417.09;2569837;30;138564;-41
2022/04/10 01:37:39;;;;;;;;;;;1.70;99.90;;;-0.18;100.00;101411.28;2568987;30;140507;-43
2022/04/10 01:40:11;;;;;;;;;;;1.70;99.90;;;-0.22;100.00;101415.19;2569116;30;139021;-43
2022/04/10 01:42:39;;;;;;;;;;;1.70;99.90;;;-0.27;100.00;101420.06;2569292;30;139299;-42
2022/04/10 01:45:07;;;;;;;;;;;1.60;99.90;;;-0.46;100.00;101400.16;2575112;30;139377;-40
2022/04/10 01:47:36;;;;;;;;;;;1.50;99.90;;;-0.45;100.00;101411.72;2567535;30;138886;-40
2022/04/10 01:50:03;;;;;;;;;;;1.50;99.90;;;-0.48;100.00;101411.97;2566476;30;138582;-40
2022/04/10 01:52:31;;;;;;;;;;;1.40;99.90;;;-0.51;100.00;101415.78;2568290;30;138567;-40
2022/04/10 01:54:58;;;;;;;;;;;1.40;99.90;;;-0.60;100.00;101420.03;2566226;30;138257;-40
2022/04/10 01:57:27;;;;;;;;;;;1.30;99.90;;;-0.68;100.00;101418.97;2567227;30;139756;-40
2022/04/10 01:59:54;;;;;;;;;;;1.20;99.90;;;-0.78;100.00;101411.66;2567331;30;138810;-40
2022/04/10 02:02:23;;;;;;;;;;;1.20;99.90;;;-0.84;100.00;101420.19;2567629;30;139368;-40
2022/04/10 02:04:51;;;;;;;;;;;1.10;99.90;;;-0.89;100.00;101425.94;2567979;30;137382;-40
2022/04/10 02:07:19;;;;;;;;;;;1.00;99.90;;;-0.95;100.00;101418.34;2567744;30;140248;-40
2022/04/10 02:09:48;;;;;;;;;;;1.00;99.90;;;-0.98;100.00;101418.59;2568401;30;138175;-40
2022/04/10 02:12:16;;;;;;;;;;;0.90;99.90;;;-1.03;100.00;101416.31;2567256;30;139572;-40
2022/04/10 02:14:43;;;;;;;;;;;0.90;99.90;;;-1.08;100.00;101420.31;2567045;30;137893;-40
2022/04/10 02:17:11;;;;;;;;;;;0.80;99.90;;;-1.07;100.00;101425.53;2568014;30;137179;-40
2022/04/10 02:19:38;;;;;;;;;;;0.80;99.90;;;-1.10;100.00;101423.09;2568638;30;136709;-39
2022/04/10 02:22:05;;;;;;;;;;;0.80;99.90;;;-1.17;100.00;101413.84;2567853;30;138617;-40
2022/04/10 02:24:33;;;;;;;;;;;0.70;99.90;;;-1.18;100.00;101417.50;2567921;30;137990;-40
2022/04/10 02:27:00;;;;;;;;;;;0.70;99.90;;;-1.23;100.00;101425.91;2568840;30;139807;-40
2022/04/10 02:29:28;;;;;;;;;;;0.70;99.90;;;-1.25;100.00;101435.88;2567649;30;137104;-41
2022/04/10 02:31:55;;;;;;;;;;;0.70;99.90;;;-1.28;100.00;101428.09;2568291;30;140832;-40
2022/04/10 02:34:24;;;;;;;;;;;0.60;99.90;;;-1.28;100.00;101435.28;2566276;30;136612;-40
2022/04/10 02:36:51;;;;;;;;;;;0.60;99.90;;;-1.32;100.00;101431.97;2567153;30;138171;-40
2022/04/10 02:39:19;;;;;;;;;;;0.60;99.90;;;-1.36;100.00;101441.22;2566180;30;138584;-40
2022/04/10 02:41:47;;;;;;;;;;;0.50;99.90;;;-1.42;100.00;101439.88;2566681;30;139890;-41
2022/04/10 02:44:14;;;;;;;;;;;0.50;99.90;;;-1.43;100.00;101446.19;2567598;30;137019;-40
2022/04/10 02:46:42;;;;;;;;;;;0.50;99.90;;;-1.48;100.00;101451.91;2567541;30;138255;-40
2022/04/10 02:49:10;;;;;;;;;;;0.40;99.90;;;-1.51;100.00;101440.59;2566600;30;138174;-40
2022/04/10 02:51:37;;;;;;;;;;;0.40;99.90;;;-1.56;100.00;101445.44;2567644;30;140575;-40
2022/04/10 02:54:05;;;;;;;;;;;0.30;99.90;;;-1.62;100.00;101442.25;2567878;30;138925;-40
2022/04/10 02:56:32;;;;;;;;;;;0.30;99.90;;;-1.63;100.00;101458.44;2566910;30;139483;-40
2022/04/10 02:59:00;;;;;;;;;;;0.30;99.90;;;-1.63;100.00;101455.75;2568780;30;139680;-40
2022/04/10 03:01:27;;;;;;;;;;;0.30;99.90;;;-1.62;100.00;101452.94;2568983;30;139327;-39
2022/04/10 03:03:54;;;;;;;;;;;0.30;99.90;;;-1.57;100.00;101457.13;2566379;30;139867;-40
2022/04/10 03:06:23;;;;;;;;;;;0.30;99.90;;;-1.58;100.00;101452.75;2569413;30;139598;-40
2022/04/10 03:08:51;;;;;;;;;;;0.30;99.90;;;-1.60;100.00;101453.69;2567629;30;137407;-40
2022/04/10 03:11:18;;;;;;;;;;;0.30;99.90;;;-1.59;100.00;101454.56;2568887;30;140639;-40
2022/04/10 03:13:46;;;;;;;;;;;0.30;99.90;;;-1.59;100.00;101462.59;2567098;30;138854;-41
2022/04/10 03:16:15;;;;;;;;;;;0.30;99.90;;;-1.58;100.00;101458.09;2567161;30;138137;-40
2022/04/10 03:18:43;;;;;;;;;;;0.30;99.90;;;-1.61;100.00;101456.50;2568027;30;137286;-39
2022/04/10 03:21:10;;;;;;;;;;;0.30;99.90;;;-1.62;100.00;101457.47;2568474;30;139419;-39
2022/04/10 03:23:38;;;;;;;;;;;0.30;99.90;;;-1.63;100.00;101461.13;2567723;30;139285;-40
2022/04/10 03:26:05;;;;;;;;;;;0.30;99.90;;;-1.62;100.00;101452.94;2566863;30;139639;-40
2022/04/10 03:28:34;;;;;;;;;;;0.30;99.90;;;-1.61;100.00;101460.00;2568456;30;136988;-40
2022/04/10 03:31:01;;;;;;;;;;;0.30;99.90;;;-1.61;100.00;101462.69;2568539;30;137365;-40
2022/04/10 03:33:29;;;;;;;;;;;0.30;99.90;;;-1.63;100.00;101459.28;2569401;30;139618;-41
2022/04/10 03:35:58;;;;;;;;;;;0.30;99.90;;;-1.65;100.00;101453.19;2567712;30;137478;-40
2022/04/10 03:38:26;;;;;;;;;;;0.30;99.90;;;-1.66;100.00;101462.19;2567686;30;139693;-40
2022/04/10 03:40:53;;;;;;;;;;;0.30;99.90;;;-1.64;100.00;101459.41;2567937;30;140238;-40
2022/04/10 03:43:22;;;;;;;;;;;0.30;99.90;;;-1.69;100.00;101461.59;2567822;30;138371;-40
2022/04/10 03:45:50;;;;;;;;;;;0.20;99.90;;;-1.65;100.00;101468.41;2567790;30;139920;-40
2022/04/10 03:48:18;;;;;;;;;;;0.20;99.90;;;-1.67;100.00;101460.50;2568769;30;138383;-40
2022/04/10 03:50:45;;;;;;;;;;;0.20;99.90;;;-1.71;100.00;101460.84;2566819;30;140079;-40
2022/04/10 03:53:15;;;;;;;;;;;0.20;99.90;;;-1.74;100.00;101468.13;2567867;30;138015;-40
2022/04/10 03:55:44;;;;;;;;;;;0.20;99.90;;;-1.79;100.00;101478.31;2568638;30;139514;-40
2022/04/10 03:58:11;;;;;;;;;;;0.10;99.90;;;-1.82;100.00;101483.06;2567671;30;139253;-40
2022/04/10 04:00:39;;;;;;;;;;;0.10;99.90;;;-1.86;100.00;101474.41;2567593;30;138580;-40
2022/04/10 04:03:11;;;;;;;;;;;0.10;99.90;;;-1.90;100.00;101479.13;2568785;30;138591;-40
2022/04/10 04:05:39;;;;;;;;;;;0.00;99.90;;;-1.94;100.00;101482.16;2568447;30;138987;-39
2022/04/10 04:08:10;;;;;;;;;;;0.00;99.90;;;-1.95;100.00;101485.81;2567013;30;139092;-40
2022/04/10 04:10:39;;;;;;;;;;;-0.10;99.90;;;-1.96;100.00;101487.63;2568449;30;139909;-40
2022/04/10 04:13:06;;;;;;;;;;;0.00;99.90;;;-1.96;100.00;101498.31;2568272;30;137392;-39
2022/04/10 04:15:34;;;;;;;;;;;0.00;99.90;;;-2.09;100.00;101474.28;2567409;30;140765;-40
2022/04/10 04:18:02;;;;;;;;;;;0.00;99.90;;;-1.99;100.00;101501.22;2568113;30;138308;-40
2022/04/10 04:20:30;;;;;;;;;;;-0.10;99.90;;;-2.02;100.00;101501.44;2568022;30;140236;-40
2022/04/10 04:22:59;;;;;;;;;;;-0.10;99.90;;;-2.07;100.00;101500.94;2567101;30;137621;-40
2022/04/10 04:25:27;;;;;;;;;;;-0.10;99.90;;;-2.05;100.00;101504.34;2568561;30;137785;-40
2022/04/10 04:27:57;;;;;;;;;;;-0.20;99.90;;;-2.14;100.00;101503.19;2566545;30;138160;-39
2022/04/10 04:30:25;;;;;;;;;;;-0.20;99.90;;;-2.12;100.00;101503.06;2569157;30;140456;-40
2022/04/10 04:32:58;;;;;;;;;;;-0.20;99.90;;;-2.18;100.00;101509.75;2568005;30;138459;-40
2022/04/10 04:35:25;;;;;;;;;;;-0.30;99.90;;;-2.20;100.00;101514.34;2568593;30;138979;-40
2022/04/10 04:37:53;;;;;;;;;;;-0.30;99.90;;;-2.22;100.00;101521.63;2568542;30;139230;-40
2022/04/10 04:40:22;;;;;;;;;;;-0.30;99.90;;;-2.24;100.00;101523.56;2567088;30;139323;-40
2022/04/10 04:42:52;;;;;;;;;;;-0.30;99.90;;;-2.25;100.00;101525.38;2568628;30;138302;-39
2022/04/10 04:45:22;;;;;;;;;;;-0.40;99.90;;;-2.29;100.00;101531.91;2567264;30;139360;-40
2022/04/10 04:48:03;;;;;;;;;;;-0.40;99.90;;;-2.33;100.00;101533.09;2568912;30;139396;-40
2022/04/10 04:50:31;;;;;;;;;;;-0.40;99.90;;;-2.33;100.00;101535.78;2568800;30;138595;-40
2022/04/10 04:52:59;;;;;;;;;;;-0.40;99.90;;;-2.34;100.00;101542.09;2567404;30;136806;-40
2022/04/10 04:55:28;;;;;;;;;;;-0.40;99.90;;;-2.34;100.00;101542.09;2568061;30;138231;-40
2022/04/10 04:57:56;;;;;;;;;;;-0.40;99.90;;;-2.34;100.00;101537.59;2568771;30;137967;-40
2022/04/10 05:00:26;;;;;;;;;;;-0.40;99.90;;;-2.30;100.00;101548.91;2567136;30;139920;-39
2022/04/10 05:02:58;;;;;;;;;;;-0.40;99.90;;;-2.28;100.00;101547.00;2566119;30;137709;-40
2022/04/10 05:05:27;;;;;;;;;;;-0.40;99.90;;;-2.25;100.00;101552.09;2567596;30;140336;-40
2022/04/10 05:07:57;;;;;;;;;;;-0.40;99.90;;;-2.21;100.00;101556.25;2564446;30;139298;-39
2022/04/10 05:10:25;;;;;;;;;;;-0.40;99.90;;;-2.19;100.00;101554.34;2567181;30;139496;-39
2022/04/10 05:12:53;;;;;;;;;;;-0.30;99.90;;;-2.17;100.00;101556.91;2567707;30;137301;-39
2022/04/10 05:15:25;;;;;;;;;;;-0.30;99.90;;;-2.15;100.00;101556.78;2566492;30;140975;-39
2022/04/10 05:17:56;;;;;;;;;;;-0.30;99.90;;;-2.15;100.00;101554.97;2567142;30;138311;-40
2022/04/10 05:20:24;;;;;;;;;;;-0.30;99.90;;;-2.12;100.00;101552.06;2566098;30;139761;-39
2022/04/10 05:23:14;;;;;;;;;;;-0.30;99.90;;;-2.11;100.00;101552.94;2567586;30;138759;-41
2022/04/10 05:25:42;;;;;;;;;;;-0.20;99.90;;;-1.98;100.00;101558.25;2565082;30;139146;-40
2022/04/10 05:28:11;;;;;;;;;;;-0.20;99.90;;;-1.96;100.00;101557.16;2569139;30;136920;-40
2022/04/10 05:30:38;;;;;;;;;;;-0.10;99.90;;;-1.93;100.00;101556.94;2567764;30;138398;-40
2022/04/10 05:33:10;;;;;;;;;;;-0.10;99.90;;;-1.88;100.00;101562.78;2565419;30;136720;-40
2022/04/10 05:35:38;;;;;;;;;;;-0.10;99.90;;;-1.84;100.00;101560.75;2568061;30;139729;-40
2022/04/10 05:38:06;;;;;;;;;;;0.00;99.90;;;-1.77;100.00;101561.16;2567563;30;139214;-40
2022/04/10 05:40:35;;;;;;;;;;;0.00;99.90;;;-1.69;100.00;101565.94;2567494;30;139242;-40
2022/04/10 05:43:03;;;;;;;;;;;0.10;99.90;;;-1.62;100.00;101565.34;2568295;30;137196;-40
2022/04/10 05:45:30;;;;;;;;;;;0.20;99.90;;;-1.54;100.00;101577.34;2567992;30;139242;-39
2022/04/10 05:47:58;;;;;;;;;;;0.20;99.90;;;-1.47;100.00;101567.88;2568041;30;138069;-40
2022/04/10 05:50:30;;;;;;;;;;;0.30;99.90;;;-1.41;100.00;101572.75;2569092;30;139540;-40
2022/04/10 05:52:57;;;;;;;;;;;0.40;99.90;;;-1.32;100.00;101571.22;2564932;30;139720;-40
2022/04/10 05:55:29;;;;;;;;;;;0.40;99.90;;;-1.20;100.00;101575.63;2568912;30;139467;-39
2022/04/10 05:58:03;;;;;;;;;;;0.50;99.90;;;-1.13;100.00;101576.00;2567877;30;139622;-39
2022/04/10 06:00:31;;;;;;;;;;;0.60;99.90;;;-0.89;100.00;101578.66;2567239;30;138392;-40
2022/04/10 06:03:12;;;;;;;;;;;0.80;99.90;;;-0.72;100.00;101584.50;2568228;30;138190;-40
2022/04/10 06:05:43;;;;;;;;;;;0.90;99.90;;;-0.52;100.00;101595.50;2569097;30;138748;-40
2022/04/10 06:08:18;;;;;;;;;;;1.10;99.90;;;-0.37;100.00;101588.06;2567993;30;138088;-40
2022/04/10 06:10:49;;;;;;;;;;;1.30;99.90;;;-0.15;100.00;101589.88;2567494;30;137448;-40
2022/04/10 06:13:19;;;;;;;;;;;1.40;99.90;;;0.00;100.00;101598.56;2567100;30;138131;-40
2022/04/10 06:15:57;;;;;;;;;;;1.60;99.90;;;0.20;100.00;101596.91;2566541;30;139596;-40
2022/04/10 06:18:25;;;;;;;;;;;1.80;99.90;;;0.34;100.00;101593.09;2567386;30;138431;-40
2022/04/10 06:20:53;;;;;;;;;;;1.90;99.90;;;0.48;100.00;101600.03;2568480;30;139336;-40
2022/04/10 06:23:23;;;;;;;;;;;2.00;99.90;;;0.62;100.00;101606.06;2567371;30;137250;-41
2022/04/10 06:25:56;;;;;;;;;;;2.10;99.90;;;0.81;100.00;101605.41;2567950;30;138089;-40
2022/04/10 06:28:25;;;;;;;;;;;2.30;99.90;;;1.00;100.00;101618.97;2568440;30;137964;-40
2022/04/10 06:30:52;;;;;;;;;;;2.50;99.90;;;1.21;100.00;101614.59;2567711;30;139743;-40
2022/04/10 06:33:25;;;;;;;;;;;2.70;99.90;;;1.41;100.00;101615.56;2567151;30;139120;-40
2022/04/10 06:35:56;;;;;;;;;;;2.80;99.90;;;1.62;100.00;101622.75;2568567;30;139462;-40
2022/04/10 06:38:24;;;;;;;;;;;3.00;99.90;;;1.83;100.00;101628.91;2568386;30;139347;-40
2022/04/10 06:41:01;;;;;;;;;;;3.20;99.90;;;2.03;100.00;101626.31;2567590;30;140525;-40
2022/04/10 06:43:28;;;;;;;;;;;3.40;99.90;;;2.10;100.00;101623.94;2568241;30;138732;-40
2022/04/10 06:46:15;;;;;;;;;;;3.60;99.90;;;2.26;100.00;101626.97;2568714;30;139386;-40
2022/04/10 06:48:57;;;;;;;;;;;3.70;99.90;;;2.49;100.00;101633.94;2566976;30;138024;-40
2022/04/10 06:51:25;;;;;;;;;;;3.90;99.90;;;2.78;100.00;101633.13;2567223;30;140161;-40
2022/04/10 06:53:52;;;;;;;;;;;4.10;99.90;;;3.00;100.00;101632.84;2567880;30;137465;-40
2022/04/10 06:56:22;;;;;;;;;;;4.30;99.90;;;2.95;100.00;101601.91;2568751;30;139163;-40
2022/04/10 06:58:49;;;;;;;;;;;4.50;99.90;;;3.18;100.00;101634.78;2567018;30;137299;-40
2022/04/10 07:01:17;;;;;;;;;;;4.60;99.90;;;3.15;99.69;101632.38;2567185;30;140443;-40
2022/04/10 07:03:46;;;;;;;;;;;4.70;99.90;;;3.16;100.00;101631.38;2568223;30;138344;-40
2022/04/10 07:06:16;;;;;;;;;;;4.70;99.90;;;3.24;100.00;101620.75;2567488;30;139953;-40
2022/04/10 07:08:44;;;;;;;;;;;4.80;99.90;;;3.50;99.88;101638.16;2568295;30;138124;-40
2022/04/10 07:11:12;;;;;;;;;;;4.90;99.90;;;3.79;97.58;101629.97;2567629;30;138288;-40
2022/04/10 07:13:39;;;;;;;;;;;5.10;99.90;;;4.02;96.64;101643.09;2566774;30;137485;-40
2022/04/10 07:16:09;;;;;;;;;;;5.30;99.90;;;4.23;95.71;101645.56;2568247;30;136838;-40
2022/04/10 07:18:36;;;;;;;;;;;5.50;99.90;;;4.45;94.50;101649.69;2569045;30;137322;-40
2022/04/10 07:21:10;;;;;;;;;;;5.70;99.90;;;4.64;93.18;101652.41;2566536;30;139223;-40
2022/04/10 07:23:45;;;;;;;;;;;5.90;99.90;;;4.72;92.05;101652.50;2567120;30;137064;-40
2022/04/10 07:26:21;;;;;;;;;;;6.10;99.90;;;4.90;91.73;101652.50;2567666;30;140055;-40
2022/04/10 07:28:54;;;;;;;;;;;6.20;99.90;;;4.94;90.60;101656.59;2567737;30;138505;-40
2022/04/10 07:31:24;;;;;;;;;;;6.30;99.90;;;5.02;90.79;101648.53;2567414;30;139768;-40
2022/04/10 07:33:52;;;;;;;;;;;6.40;99.90;;;5.02;90.15;101653.97;2568619;30;137958;-40
2022/04/10 07:36:37;;;;;;;;;;;6.40;99.90;;;5.00;90.97;101647.03;2567870;30;138201;-41
2022/04/10 07:39:04;;;;;;;;;;;6.50;99.90;;;5.00;90.70;101668.66;2566730;30;138769;-40
2022/04/10 07:41:38;;;;;;;;;;;6.50;99.90;;;5.05;91.41;101666.34;2566013;30;139977;-40
2022/04/10 07:49:00;;;;;;;;;;;6.50;99.90;;;5.23;89.90;101681.72;2569503;30;139330;-41
2022/04/10 07:51:32;;;;;;;;;;;6.60;99.90;;;5.22;89.52;101670.03;2570851;30;138724;-41
2022/04/10 07:54:23;;;;;;;;;;;6.60;99.90;;;5.24;89.16;101678.84;2567934;30;139253;-41
